Time;durP1;ratioP1;P1;durP2;ratioP2;P2;SDS_P1;SDS_P2;PMS_P1;PMS_P2;Temp;Humidity;BMP_temperature;BMP_pressure;BME280_temperature;BME280_humidity;BME280_pressure;Samples;Min_cycle;Max_cycle;Signal;HPM_P1;HPM_P2
2024/01/01 00:01:48;;;;;;;0.93;0.93;;;;;;;5.99;74.77;96488.81;5030772;28;20510;-72
2024/01/01 00:04:16;;;;;;;1.30;1.30;;;;;;;5.96;74.86;96468.81;5031394;28;20116;-72
2024/01/01 00:06:45;;;;;;;1.40;1.40;;;;;;;6.04;74.53;96478.44;5032460;28;20046;-72
2024/01/01 00:09:12;;;;;;;0.80;0.80;;;;;;;6.01;74.53;96479.66;5028710;28;20046;-73
2024/01/01 00:11:40;;;;;;;1.00;1.00;;;;;;;6.03;74.38;96477.59;5029439;28;21405;-73
2024/01/01 00:14:12;;;;;;;1.15;1.15;;;;;;;6.01;74.16;96471.72;5026268;28;20120;-73
2024/01/01 00:16:40;;;;;;;0.88;0.88;;;;;;;6.00;74.47;96480.66;5038637;28;20044;-75
2024/01/01 00:19:08;;;;;;;0.90;0.90;;;;;;;6.06;73.95;96477.22;5034040;28;20500;-73
2024/01/01 00:21:37;;;;;;;0.40;0.40;;;;;;;6.01;74.43;96477.00;5037110;28;20408;-73
2024/01/01 00:24:07;;;;;;;0.75;0.75;;;;;;;5.96;74.50;96474.09;5031137;28;20125;-72
2024/01/01 00:26:34;;;;;;;0.93;0.93;;;;;;;5.98;74.15;96474.75;5024163;28;20045;-72
2024/01/01 00:29:03;;;;;;;0.80;0.80;;;;;;;6.00;74.05;96472.72;5030853;28;20120;-72
2024/01/01 00:31:31;;;;;;;0.30;0.30;;;;;;;6.02;73.72;96483.13;5024150;28;20381;-72
2024/01/01 00:33:59;;;;;;;0.75;0.75;;;;;;;6.09;73.93;96484.81;5030010;28;20046;-72
2024/01/01 00:36:27;;;;;;;0.75;0.75;;;;;;;6.08;74.05;96483.16;5013735;28;20045;-73
2024/01/01 00:38:55;;;;;;;0.93;0.93;;;;;;;6.02;73.96;96481.25;5028853;28;20117;-72
2024/01/01 00:41:23;;;;;;;1.08;1.08;;;;;;;6.06;73.87;96479.06;5012925;28;20087;-73
2024/01/01 00:43:51;;;;;;;1.10;1.10;;;;;;;6.04;74.07;96484.53;5013504;28;20053;-72
2024/01/01 00:46:19;;;;;;;1.02;1.02;;;;;;;6.03;74.00;96477.59;5020060;28;20036;-73
2024/01/01 00:48:46;;;;;;;0.20;0.20;;;;;;;6.02;73.90;96472.53;5038396;28;20378;-73
2024/01/01 00:51:14;;;;;;;0.70;0.70;;;;;;;5.89;74.42;96465.31;5033860;28;20120;-73
2024/01/01 00:53:42;;;;;;;1.33;1.33;;;;;;;5.87;74.39;96457.53;5027448;28;20051;-74
2024/01/01 00:56:09;;;;;;;0.93;0.93;;;;;;;5.96;74.07;96470.63;5029619;28;20051;-72
2024/01/01 00:58:38;;;;;;;1.00;1.00;;;;;;;5.91;74.20;96478.38;5026342;28;20041;-73
2024/01/01 01:01:07;;;;;;;0.80;0.80;;;;;;;5.87;74.38;96484.00;5031890;28;20059;-73
2024/01/01 01:03:35;;;;;;;0.60;0.60;;;;;;;5.94;74.43;96486.72;5013218;28;20049;-73
2024/01/01 01:06:03;;;;;;;0.65;0.65;;;;;;;5.89;74.54;96483.84;5034030;28;20061;-73
2024/01/01 01:08:44;;;;;;;0.70;0.70;;;;;;;5.92;74.01;96488.72;5030069;28;20095;-73
2024/01/01 01:11:12;;;;;;;0.95;0.95;;;;;;;5.91;74.16;96491.59;5030711;28;20041;-73
2024/01/01 01:13:41;;;;;;;1.05;1.05;;;;;;;5.88;74.13;96493.63;5029464;28;20501;-73
2024/01/01 01:16:08;;;;;;;0.75;0.75;;;;;;;5.91;73.62;96491.59;5017426;28;20140;-72
2024/01/01 01:18:36;;;;;;;0.88;0.88;;;;;;;5.92;73.84;96490.59;5031046;28;20072;-72
2024/01/01 01:21:04;;;;;;;1.00;1.00;;;;;;;5.95;73.72;96490.19;5013389;28;20052;-72
2024/01/01 01:23:31;;;;;;;0.90;0.90;;;;;;;5.98;73.82;96498.56;5030179;28;20045;-72
2024/01/01 01:25:59;;;;;;;1.13;1.13;;;;;;;5.96;73.72;96491.81;5030017;28;20073;-72
2024/01/01 01:28:27;;;;;;;1.10;1.10;;;;;;;5.95;73.65;96485.72;5012252;28;20100;-72
2024/01/01 01:30:55;;;;;;;1.10;1.10;;;;;;;5.98;73.30;96495.94;5012725;28;20050;-72
2024/01/01 01:33:23;;;;;;;1.20;1.20;;;;;;;5.95;73.61;96483.06;5018493;28;20084;-72
2024/01/01 01:35:51;;;;;;;0.93;0.93;;;;;;;5.92;73.64;96483.44;5012741;28;20075;-72
2024/01/01 01:38:18;;;;;;;0.95;0.95;;;;;;;6.02;73.77;96491.88;5016690;28;20091;-73
2024/01/01 01:40:46;;;;;;;1.00;1.00;;;;;;;5.97;73.45;96493.47;5030601;28;20037;-73
2024/01/01 01:43:21;;;;;;;0.88;0.88;;;;;;;5.99;73.54;96492.28;5026925;28;20029;-73
2024/01/01 01:45:50;;;;;;;0.68;0.68;;;;;;;5.96;73.24;96490.00;5001415;28;20051;-73
2024/01/01 01:48:19;;;;;;;0.93;0.93;;;;;;;5.95;73.22;96491.00;5010412;28;20148;-73
2024/01/01 01:50:47;;;;;;;0.85;0.85;;;;;;;6.00;73.24;96485.97;5026373;28;20095;-73
2024/01/01 01:53:16;;;;;;;0.90;0.90;;;;;;;5.93;73.44;96487.72;5011696;28;20041;-73
2024/01/01 01:55:45;;;;;;;0.95;0.95;;;;;;;5.90;73.60;96488.13;5031488;28;20136;-74
2024/01/01 01:58:12;;;;;;;1.20;1.20;;;;;;;5.89;73.62;96476.72;5011723;28;20043;-74
2024/01/01 02:00:40;;;;;;;0.60;0.60;;;;;;;5.86;73.44;96479.72;5005994;28;20549;-73
2024/01/01 02:03:08;;;;;;;0.82;0.82;;;;;;;5.85;73.80;96488.66;5024705;28;20049;-73
2024/01/01 02:05:38;;;;;;;0.82;0.82;;;;;;;5.81;74.02;96483.97;5029015;28;20045;-73
2024/01/01 02:08:06;;;;;;;0.93;0.93;;;;;;;5.76;74.21;96467.81;5025748;28;20128;-73
2024/01/01 02:10:35;;;;;;;0.88;0.88;;;;;;;5.78;74.36;96463.16;5028210;28;20049;-74
2024/01/01 02:13:03;;;;;;;1.08;1.08;;;;;;;5.74;74.33;96473.31;5012823;28;20041;-73
2024/01/01 02:15:31;;;;;;;0.77;0.77;;;;;;;5.77;74.08;96461.53;5029488;28;20052;-74
2024/01/01 02:17:58;;;;;;;0.88;0.88;;;;;;;5.72;74.19;96461.25;5013189;28;20141;-74
2024/01/01 02:20:26;;;;;;;1.40;1.40;;;;;;;5.73;74.22;96455.78;5012845;28;20084;-75
2024/01/01 02:22:56;;;;;;;0.88;0.88;;;;;;;5.70;74.54;96461.47;5030787;28;20045;-74
2024/01/01 02:25:25;;;;;;;1.00;1.00;;;;;;;5.71;74.57;96462.31;5029423;28;20132;-74
2024/01/01 02:27:52;;;;;;;1.08;1.08;;;;;;;5.71;74.55;96473.69;5013040;28;20045;-74
2024/01/01 02:30:20;;;;;;;0.70;0.70;;;;;;;5.69;74.75;96481.03;5025295;28;20124;-73
2024/01/01 02:32:47;;;;;;;0.93;0.93;;;;;;;5.67;74.83;96484.84;5016498;28;20038;-73
2024/01/01 02:35:15;;;;;;;0.90;0.90;;;;;;;5.67;74.80;96492.81;5026807;28;20092;-73
2024/01/01 02:37:43;;;;;;;1.00;1.00;;;;;;;5.65;75.11;96484.22;5013162;28;20504;-73
2024/01/01 02:40:12;;;;;;;0.20;0.20;;;;;;;5.63;75.17;96484.41;5011760;28;20404;-73
2024/01/01 02:42:40;;;;;;;1.08;1.08;;;;;;;5.59;75.32;96496.41;5031471;28;20060;-73
2024/01/01 02:45:09;;;;;;;0.77;0.77;;;;;;;5.63;75.63;96488.88;5030031;28;20051;-73
2024/01/01 02:47:37;;;;;;;0.90;0.90;;;;;;;5.52;75.65;96488.41;5011736;28;20041;-74
2024/01/01 02:50:06;;;;;;;0.35;0.35;;;;;;;5.57;75.58;96485.19;5016565;28;20462;-73
2024/01/01 02:52:34;;;;;;;0.77;0.77;;;;;;;5.53;75.80;96481.28;5018031;28;20045;-73
2024/01/01 02:55:02;;;;;;;1.08;1.08;;;;;;;5.58;75.75;96481.53;5015429;28;20096;-73
2024/01/01 02:57:31;;;;;;;0.70;0.70;;;;;;;5.50;75.65;96486.97;5019247;28;20049;-75
2024/01/01 02:59:58;;;;;;;0.88;0.88;;;;;;;5.49;75.55;96486.16;5016191;28;20048;-73
2024/01/01 03:02:27;;;;;;;0.90;0.90;;;;;;;5.41;76.19;96480.16;5030349;28;20057;-73
2024/01/01 03:04:54;;;;;;;0.95;0.95;;;;;;;5.50;76.13;96479.81;5011462;28;20135;-73
2024/01/01 03:07:22;;;;;;;0.98;0.98;;;;;;;5.50;75.88;96471.09;5021875;28;20037;-73
2024/01/01 03:09:50;;;;;;;0.93;0.93;;;;;;;5.47;76.04;96471.47;5016349;28;20045;-72
2024/01/01 03:12:18;;;;;;;1.10;1.10;;;;;;;5.49;76.04;96472.09;5010449;28;20045;-72
2024/01/01 03:14:48;;;;;;;0.80;0.80;;;;;;;5.51;75.75;96470.06;5016972;28;20042;-72
2024/01/01 03:17:16;;;;;;;0.38;0.38;;;;;;;5.46;76.04;96469.81;5014172;28;20426;-72
2024/01/01 03:19:43;;;;;;;1.58;1.58;;;;;;;5.35;77.07;96468.50;5033755;28;20041;-72
2024/01/01 03:22:11;;;;;;;0.82;0.82;;;;;;;5.39;77.24;96464.50;5015639;28;20045;-72
2024/01/01 03:24:38;;;;;;;0.70;0.70;;;;;;;5.36;77.12;96453.47;5015647;28;20048;-72
2024/01/01 03:27:06;;;;;;;1.00;1.00;;;;;;;5.29;77.39;96448.13;5029526;28;20053;-72
2024/01/01 03:29:34;;;;;;;1.13;1.13;;;;;;;5.33;77.35;96452.00;5033384;28;20067;-72
2024/01/01 03:32:03;;;;;;;0.88;0.88;;;;;;;5.29;77.30;96448.13;5031938;28;20063;-72
2024/01/01 03:34:32;;;;;;;1.05;1.05;;;;;;;5.25;77.70;96459.25;5030117;28;20076;-72
2024/01/01 03:37:00;;;;;;;1.08;1.08;;;;;;;5.15;77.91;96459.56;5015324;28;20132;-72
2024/01/01 03:39:29;;;;;;;1.27;1.27;;;;;;;5.17;77.75;96462.84;5015524;28;20042;-72
2024/01/01 03:41:56;;;;;;;0.80;0.80;;;;;;;5.14;78.12;96457.94;5011601;28;20049;-73
2024/01/01 03:44:24;;;;;;;0.30;0.30;;;;;;;5.14;78.19;96457.94;5032880;28;20443;-72
2024/01/01 03:46:51;;;;;;;1.20;1.20;;;;;;;5.10;78.53;96452.19;5009852;28;20089;-73
2024/01/01 03:49:20;;;;;;;1.25;1.25;;;;;;;5.00;79.30;96448.22;5027535;28;20042;-73
2024/01/01 03:51:48;;;;;;;0.73;0.73;;;;;;;5.02;79.05;96447.03;5015265;28;20069;-73
2024/01/01 03:54:16;;;;;;;0.75;0.75;;;;;;;5.09;78.63;96447.91;5032395;28;20038;-72
2024/01/01 03:56:44;;;;;;;0.22;0.22;;;;;;;5.02;79.20;96457.59;5032973;28;20386;-75
2024/01/01 03:59:11;;;;;;;0.70;0.70;;;;;;;5.08;78.87;96451.59;5031354;28;20110;-73
2024/01/01 04:01:39;;;;;;;0.77;0.77;;;;;;;5.06;79.10;96460.72;5032223;28;20104;-73
2024/01/01 04:04:09;;;;;;;0.65;0.65;;;;;;;5.06;79.15;96448.31;5014886;28;20038;-73
2024/01/01 04:06:38;;;;;;;1.13;1.13;;;;;;;5.09;79.01;96457.66;5031964;28;20132;-73
2024/01/01 04:09:05;;;;;;;0.30;0.30;;;;;;;5.02;79.60;96457.59;5031806;28;20396;-75
2024/01/01 04:11:33;;;;;;;0.80;0.80;;;;;;;4.99;79.85;96465.91;5014650;28;20481;-73
2024/01/01 04:14:01;;;;;;;0.95;0.95;;;;;;;4.98;80.02;96456.38;5018322;28;20497;-73
2024/01/01 04:16:29;;;;;;;0.80;0.80;;;;;;;4.97;80.07;96457.38;5021311;28;20041;-73
2024/01/01 04:18:57;;;;;;;0.43;0.43;;;;;;;5.00;80.22;96456.16;5034267;28;20500;-74
2024/01/01 04:21:25;;;;;;;1.13;1.13;;;;;;;4.98;80.79;96453.72;5037337;28;20038;-73
2024/01/01 04:23:57;;;;;;;0.98;0.98;;;;;;;4.93;81.20;96452.63;5033594;28;20052;-73
2024/01/01 04:26:25;;;;;;;0.90;0.90;;;;;;;4.92;81.08;96449.16;5039903;28;20041;-73
2024/01/01 04:28:53;;;;;;;0.85;0.85;;;;;;;4.90;81.54;96461.75;5043164;28;20045;-73
2024/01/01 04:31:21;;;;;;;0.90;0.90;;;;;;;4.89;80.97;96451.34;5033943;28;20045;-73
2024/01/01 04:33:48;;;;;;;0.95;0.95;;;;;;;4.91;80.77;96452.00;5032289;28;20497;-73
2024/01/01 04:36:16;;;;;;;0.93;0.93;;;;;;;4.93;80.56;96448.16;5030057;28;20045;-73
2024/01/01 04:38:44;;;;;;;0.90;0.90;;;;;;;5.00;80.48;96454.31;5030390;28;20052;-75
2024/01/01 04:41:13;;;;;;;1.15;1.15;;;;;;;5.00;80.35;96440.28;5035356;28;20056;-75
2024/01/01 04:43:40;;;;;;;0.85;0.85;;;;;;;5.08;80.13;96458.69;5036286;28;20048;-73
2024/01/01 04:46:09;;;;;;;1.15;1.15;;;;;;;5.04;80.35;96460.06;5035256;28;20045;-74
2024/01/01 04:48:36;;;;;;;0.98;0.98;;;;;;;4.98;80.75;96459.00;5031844;28;20038;-74
2024/01/01 04:51:05;;;;;;;0.88;0.88;;;;;;;4.94;80.89;96459.56;5031472;28;20048;-75
2024/01/01 04:53:33;;;;;;;0.88;0.88;;;;;;;4.99;81.15;96468.56;5035194;28;20049;-73
2024/01/01 04:56:00;;;;;;;0.80;0.80;;;;;;;5.01;81.39;96471.84;5034472;28;20099;-73
2024/01/01 04:58:29;;;;;;;0.85;0.85;;;;;;;4.95;82.00;96469.94;5031514;28;20072;-73
2024/01/01 05:00:57;;;;;;;0.70;0.70;;;;;;;4.96;82.48;96474.22;5039986;28;20072;-73
2024/01/01 05:03:24;;;;;;;0.80;0.80;;;;;;;4.92;82.56;96466.84;5031527;28;20045;-74
2024/01/01 05:05:52;;;;;;;1.02;1.02;;;;;;;4.87;82.63;96470.06;5035643;28;20045;-74
2024/01/01 05:08:19;;;;;;;0.82;0.82;;;;;;;4.94;81.88;96448.97;5030686;28;20120;-74
2024/01/01 05:10:47;;;;;;;1.08;1.08;;;;;;;4.92;82.16;96443.88;5031025;28;20064;-73
2024/01/01 05:13:16;;;;;;;0.98;0.98;;;;;;;4.85;82.04;96452.75;5031059;28;20057;-74
2024/01/01 05:15:45;;;;;;;1.02;1.02;;;;;;;4.89;81.83;96457.47;5036331;28;20049;-76
2024/01/01 05:18:12;;;;;;;0.98;0.98;;;;;;;4.91;81.49;96457.28;5031003;28;20527;-73
2024/01/01 05:20:40;;;;;;;1.35;1.35;;;;;;;4.95;81.25;96464.66;5031328;28;20183;-76
2024/01/01 05:23:08;;;;;;;0.95;0.95;;;;;;;4.98;80.75;96466.13;5033846;28;20041;-76
2024/01/01 05:25:36;;;;;;;0.85;0.85;;;;;;;4.91;80.95;96454.63;5025721;28;20041;-73
2024/01/01 05:28:07;;;;;;;0.32;0.32;;;;;;;4.92;81.51;96466.84;5020557;28;20479;-76
2024/01/01 05:30:35;;;;;;;1.33;1.33;;;;;;;4.88;82.12;96461.09;5027574;28;20045;-76
2024/01/01 05:33:05;;;;;;;0.75;0.75;;;;;;;4.90;81.87;96464.38;5030646;28;20080;-74
2024/01/01 05:35:33;;;;;;;0.68;0.68;;;;;;;4.97;81.90;96459.19;5029824;28;20050;-73
2024/01/01 05:38:00;;;;;;;1.20;1.20;;;;;;;4.95;81.74;96456.72;5030567;28;20076;-76
2024/01/01 05:40:28;;;;;;;1.15;1.15;;;;;;;4.88;81.81;96445.25;5030807;28;20037;-73
2024/01/01 05:42:55;;;;;;;0.82;0.82;;;;;;;4.87;82.07;96448.94;5029885;28;20049;-73
2024/01/01 05:45:23;;;;;;;0.68;0.68;;;;;;;4.90;81.79;96448.53;5030890;28;20071;-74
2024/01/01 05:47:50;;;;;;;1.10;1.10;;;;;;;4.90;81.77;96455.63;5034236;28;20041;-76
2024/01/01 05:50:23;;;;;;;1.08;1.08;;;;;;;4.94;81.55;96449.81;5030245;28;20046;-73
2024/01/01 05:52:51;;;;;;;0.93;0.93;;;;;;;4.98;81.25;96448.44;5028284;28;20049;-72
2024/01/01 05:55:19;;;;;;;1.13;1.13;;;;;;;4.93;81.32;96457.91;5032902;28;20041;-75
2024/01/01 05:57:46;;;;;;;0.65;0.65;;;;;;;4.86;81.14;96462.31;5031285;28;20050;-74
2024/01/01 06:00:15;;;;;;;0.98;0.98;;;;;;;4.86;80.63;96457.03;5036852;28;20056;-75
2024/01/01 06:02:43;;;;;;;0.98;0.98;;;;;;;4.82;81.10;96476.91;5028794;28;20116;-74
2024/01/01 06:05:12;;;;;;;1.00;1.00;;;;;;;4.93;80.61;96477.25;5031885;28;20144;-73
2024/01/01 06:07:41;;;;;;;0.35;0.35;;;;;;;4.91;80.70;96483.72;5029989;28;20392;-74
2024/01/01 06:10:09;;;;;;;0.20;0.20;;;;;;;4.86;80.47;96486.13;5030526;28;20519;-74
2024/01/01 06:12:37;;;;;;;0.35;0.35;;;;;;;4.96;80.28;96491.91;5030770;28;20405;-75
2024/01/01 06:15:05;;;;;;;0.70;0.70;;;;;;;4.99;79.97;96489.69;5030832;28;20053;-74
2024/01/01 06:17:33;;;;;;;0.85;0.85;;;;;;;5.04;79.63;96484.69;5036509;28;20049;-74
2024/01/01 06:20:00;;;;;;;0.35;0.35;;;;;;;4.98;79.89;96490.75;5029852;28;20398;-75
2024/01/01 06:22:28;;;;;;;1.13;1.13;;;;;;;5.09;79.12;96486.75;5032079;28;20049;-74
2024/01/01 06:24:57;;;;;;;0.35;0.35;;;;;;;5.05;79.20;96478.41;5033948;28;20408;-75
2024/01/01 06:27:25;;;;;;;0.80;0.80;;;;;;;5.07;78.97;96489.59;5033649;28;20116;-74
2024/01/01 06:29:52;;;;;;;0.95;0.95;;;;;;;5.11;78.69;96482.09;5035219;28;20037;-75
2024/01/01 06:32:20;;;;;;;0.77;0.77;;;;;;;5.16;78.51;96492.94;5034457;28;20050;-75
2024/01/01 06:34:48;;;;;;;0.93;0.93;;;;;;;5.22;77.83;96494.00;5034127;28;20069;-74
2024/01/01 06:37:15;;;;;;;1.08;1.08;;;;;;;5.21;77.74;96500.31;5033371;28;20072;-74
2024/01/01 06:39:43;;;;;;;1.08;1.08;;;;;;;5.25;77.39;96505.03;5034146;28;20045;-74
2024/01/01 06:42:12;;;;;;;1.00;1.00;;;;;;;5.15;78.05;96508.00;5034029;28;20052;-75
2024/01/01 06:44:43;;;;;;;0.70;0.70;;;;;;;5.12;78.00;96511.00;5034516;28;20115;-74
2024/01/01 06:47:11;;;;;;;0.90;0.90;;;;;;;5.20;78.23;96523.28;5037118;28;20052;-75
2024/01/01 06:49:39;;;;;;;1.02;1.02;;;;;;;5.21;77.55;96517.00;5028375;28;20072;-75
2024/01/01 06:52:07;;;;;;;0.70;0.70;;;;;;;5.15;77.78;96520.41;5033956;28;20076;-75
2024/01/01 06:54:35;;;;;;;1.00;1.00;;;;;;;5.21;77.54;96508.22;5033648;28;20049;-75
2024/01/01 06:57:03;;;;;;;0.25;0.25;;;;;;;5.17;77.87;96521.03;5033715;28;20463;-75
2024/01/01 06:59:31;;;;;;;0.90;0.90;;;;;;;5.19;78.05;96520.84;5032681;28;20662;-75
2024/01/01 07:01:59;;;;;;;0.98;0.98;;;;;;;5.09;77.70;96518.47;5034371;28;20596;-75
2024/01/01 07:04:27;;;;;;;0.82;0.82;;;;;;;5.03;78.23;96522.72;5033565;28;20040;-75
2024/01/01 07:06:56;;;;;;;0.15;0.15;;;;;;;4.91;78.86;96523.38;5042970;28;20471;-74
2024/01/01 07:09:23;;;;;;;0.80;0.80;;;;;;;4.96;79.08;96528.94;5033405;28;20095;-74
2024/01/01 07:11:51;;;;;;;1.02;1.02;;;;;;;4.86;79.25;96537.16;5037146;28;20033;-74
2024/01/01 07:14:19;;;;;;;0.70;0.70;;;;;;;4.80;79.53;96527.31;5033378;28;20157;-75
2024/01/01 07:16:48;;;;;;;0.63;0.63;;;;;;;4.87;79.36;96543.28;5039555;28;20041;-75
2024/01/01 07:19:15;;;;;;;0.82;0.82;;;;;;;4.85;79.72;96543.44;5033431;28;20124;-74
2024/01/01 07:21:43;;;;;;;0.75;0.75;;;;;;;4.87;79.65;96548.56;5033454;28;20044;-74
2024/01/01 07:24:11;;;;;;;0.50;0.50;;;;;;;4.82;79.96;96545.63;5033008;28;20051;-74
2024/01/01 07:26:38;;;;;;;0.93;0.93;;;;;;;4.91;79.78;96550.63;5036324;28;20047;-74
2024/01/01 07:29:06;;;;;;;0.98;0.98;;;;;;;4.97;79.54;96552.53;5035112;28;20068;-75
2024/01/01 07:31:35;;;;;;;0.20;0.20;;;;;;;4.92;79.79;96554.91;5039338;28;20562;-74
2024/01/01 07:34:04;;;;;;;0.20;0.20;;;;;;;4.97;79.58;96555.19;5036024;28;20447;-74
2024/01/01 07:36:33;;;;;;;1.17;1.17;;;;;;;5.02;79.42;96565.19;5034140;28;20103;-74
2024/01/01 07:39:00;;;;;;;1.15;1.15;;;;;;;5.01;79.25;96567.00;5036702;28;20116;-74
2024/01/01 07:41:28;;;;;;;1.08;1.08;;;;;;;5.04;78.85;96563.19;5032065;28;20052;-74
2024/01/01 07:43:55;;;;;;;1.20;1.20;;;;;;;5.09;79.15;96558.97;5033304;28;20045;-74
2024/01/01 07:46:23;;;;;;;1.05;1.05;;;;;;;5.10;78.70;96567.72;5033069;28;20156;-74
2024/01/01 07:48:50;;;;;;;0.73;0.73;;;;;;;5.16;78.49;96554.59;5032097;28;20037;-74
2024/01/01 07:51:19;;;;;;;0.82;0.82;;;;;;;5.13;78.47;96567.38;5031944;28;20132;-74
2024/01/01 07:53:48;;;;;;;0.70;0.70;;;;;;;5.17;78.37;96566.00;5034865;28;20041;-73
2024/01/01 07:56:16;;;;;;;1.00;1.00;;;;;;;5.15;78.43;96563.53;5035532;28;20047;-74
2024/01/01 07:58:43;;;;;;;0.88;0.88;;;;;;;5.23;78.47;96564.41;5032935;28;20516;-73
2024/01/01 08:01:11;;;;;;;0.82;0.82;;;;;;;5.30;77.96;96563.47;5033544;28;20080;-73
2024/01/01 08:03:38;;;;;;;0.68;0.68;;;;;;;5.27;78.08;96550.66;5026505;28;20041;-73
2024/01/01 08:06:06;;;;;;;0.65;0.65;;;;;;;5.27;78.10;96560.41;5031598;28;20065;-73
2024/01/01 08:08:35;;;;;;;0.95;0.95;;;;;;;5.25;77.75;96559.75;5033277;28;20542;-73
2024/01/01 08:11:03;;;;;;;0.32;0.32;;;;;;;5.26;77.81;96569.34;5032852;28;20382;-73
2024/01/01 08:13:30;;;;;;;0.20;0.20;;;;;;;5.22;77.75;96568.06;5032773;28;20447;-73
2024/01/01 08:15:58;;;;;;;0.93;0.93;;;;;;;5.26;78.08;96566.69;5040695;28;20037;-73
2024/01/01 08:18:26;;;;;;;0.90;0.90;;;;;;;5.31;77.84;96569.59;5033234;28;20044;-72
2024/01/01 08:20:53;;;;;;;1.08;1.08;;;;;;;5.25;77.98;96562.41;5036916;28;20049;-73
2024/01/01 08:23:21;;;;;;;1.35;1.35;;;;;;;5.26;77.99;96556.13;5033904;28;20059;-74
2024/01/01 08:25:50;;;;;;;0.30;0.30;;;;;;;5.31;77.90;96564.28;5032269;28;20412;-73
2024/01/01 08:28:18;;;;;;;1.17;1.17;;;;;;;5.33;77.79;96568.41;5035094;28;20110;-73
2024/01/01 08:30:48;;;;;;;0.73;0.73;;;;;;;5.30;77.85;96567.94;5036000;28;20055;-74
2024/01/01 08:33:16;;;;;;;0.88;0.88;;;;;;;5.32;77.85;96558.00;5033616;28;20049;-74
2024/01/01 08:35:44;;;;;;;0.77;0.77;;;;;;;5.34;77.96;96564.75;5033902;28;20049;-74
2024/01/01 08:38:12;;;;;;;1.10;1.10;;;;;;;5.33;77.65;96560.47;5031711;28;20050;-74
2024/01/01 08:40:39;;;;;;;0.90;0.90;;;;;;;5.36;77.61;96560.09;5031174;28;20069;-74
2024/01/01 08:43:08;;;;;;;0.95;0.95;;;;;;;5.39;77.22;96564.19;5014110;28;20132;-73
2024/01/01 08:45:36;;;;;;;1.40;1.40;;;;;;;5.42;77.27;96564.63;5031561;28;20036;-73
2024/01/01 08:48:04;;;;;;;0.80;0.80;;;;;;;5.48;77.15;96579.78;5026069;28;20081;-73
2024/01/01 08:50:32;;;;;;;0.73;0.73;;;;;;;5.43;77.46;96581.31;5025008;28;20103;-73
2024/01/01 08:52:59;;;;;;;0.85;0.85;;;;;;;5.48;77.08;96579.78;5032342;28;20049;-73
2024/01/01 08:55:28;;;;;;;0.98;0.98;;;;;;;5.49;76.83;96586.69;5034259;28;20124;-73
2024/01/01 08:57:56;;;;;;;0.60;0.60;;;;;;;5.55;76.66;96595.69;5032390;28;20042;-73
2024/01/01 09:00:25;;;;;;;0.77;0.77;;;;;;;5.49;76.37;96592.00;5033763;28;20061;-73
2024/01/01 09:02:53;;;;;;;0.77;0.77;;;;;;;5.53;76.40;96587.13;5030993;28;20120;-73
2024/01/01 09:05:21;;;;;;;0.82;0.82;;;;;;;5.54;76.78;96604.66;5033836;28;20045;-73
2024/01/01 09:07:49;;;;;;;1.08;1.08;;;;;;;5.58;76.75;96599.81;5026773;28;20058;-73
2024/01/01 09:10:17;;;;;;;0.82;0.82;;;;;;;5.60;76.43;96598.63;5020731;28;20046;-73
2024/01/01 09:12:44;;;;;;;0.30;0.30;;;;;;;5.64;76.45;96602.50;5027285;28;20408;-73
2024/01/01 09:15:15;;;;;;;0.35;0.35;;;;;;;5.62;76.51;96598.41;5031152;28;20464;-73
2024/01/01 09:17:44;;;;;;;0.80;0.80;;;;;;;5.64;76.53;96605.16;5030895;28;20505;-74
2024/01/01 09:20:12;;;;;;;1.08;1.08;;;;;;;5.71;76.30;96610.53;5036460;28;20042;-74
2024/01/01 09:22:40;;;;;;;0.28;0.28;;;;;;;5.64;76.46;96602.50;5031373;28;20448;-74
2024/01/01 09:25:08;;;;;;;0.80;0.80;;;;;;;5.70;76.51;96606.25;5029742;28;20046;-74
2024/01/01 09:27:36;;;;;;;0.93;0.93;;;;;;;5.66;76.92;96607.63;5031814;28;20049;-74
2024/01/01 09:30:04;;;;;;;0.70;0.70;;;;;;;5.68;77.24;96610.91;5030971;28;20053;-74
2024/01/01 09:32:31;;;;;;;0.30;0.30;;;;;;;5.67;77.51;96607.44;5034838;28;20588;-74
2024/01/01 09:35:01;;;;;;;0.82;0.82;;;;;;;5.73;77.42;96603.19;5024403;28;20134;-74
2024/01/01 09:37:29;;;;;;;1.55;1.55;;;;;;;5.78;76.99;96606.13;5028940;28;20045;-74
2024/01/01 09:39:57;;;;;;;0.70;0.70;;;;;;;5.77;76.81;96605.28;5032377;28;20041;-74
2024/01/01 09:42:25;;;;;;;1.02;1.02;;;;;;;5.86;76.70;96603.34;5025864;28;20037;-73
2024/01/01 09:44:53;;;;;;;0.77;0.77;;;;;;;5.94;75.69;96605.88;5033521;28;20045;-73
2024/01/01 09:47:20;;;;;;;0.90;0.90;;;;;;;5.89;75.58;96605.66;5032531;28;20048;-74
2024/01/01 09:49:48;;;;;;;0.70;0.70;;;;;;;5.85;76.18;96607.00;5031418;28;20052;-74
2024/01/01 09:52:18;;;;;;;0.30;0.30;;;;;;;5.85;76.29;96609.63;5038816;28;20423;-74
2024/01/01 09:54:45;;;;;;;1.42;1.42;;;;;;;5.78;77.07;96624.66;5032527;28;20049;-74
2024/01/01 09:57:13;;;;;;;1.05;1.05;;;;;;;5.73;78.15;96619.09;5038658;28;20053;-74
2024/01/01 09:59:40;;;;;;;0.80;0.80;;;;;;;5.67;78.70;96619.84;5037382;28;20103;-74
2024/01/01 10:02:09;;;;;;;0.90;0.90;;;;;;;5.65;78.77;96619.22;5030038;28;20042;-74
2024/01/01 10:04:37;;;;;;;0.90;0.90;;;;;;;5.59;79.06;96618.16;5030901;28;20041;-74
2024/01/01 10:07:05;;;;;;;0.85;0.85;;;;;;;5.60;79.17;96618.97;5029360;28;20050;-74
2024/01/01 10:09:46;;;;;;;0.88;0.88;;;;;;;5.66;78.95;96607.63;5030504;28;20493;-74
2024/01/01 10:12:14;;;;;;;0.77;0.77;;;;;;;5.60;79.19;96613.69;5028196;28;20041;-74
2024/01/01 10:14:46;;;;;;;1.02;1.02;;;;;;;5.56;79.75;96609.75;5031677;28;20049;-74
2024/01/01 10:17:14;;;;;;;;;;;;;;;5.57;78.83;96612.22;5027107;28;20489;-74
2024/01/01 10:19:49;;;;;;;0.82;0.82;;;;;;;5.54;79.11;96602.81;5030467;28;19952;-74
2024/01/01 10:22:18;;;;;;;0.77;0.77;;;;;;;5.54;79.17;96600.19;5033334;28;20092;-74
2024/01/01 10:24:48;;;;;;;0.22;0.22;;;;;;;5.49;79.29;96617.63;5031948;28;20053;-74
2024/01/01 10:27:17;;;;;;;0.15;0.15;;;;;;;5.49;79.72;96613.16;5030577;28;20437;-74
2024/01/01 10:29:46;;;;;;;1.00;1.00;;;;;;;5.48;80.21;96616.81;5031173;28;20041;-74
2024/01/01 10:32:15;;;;;;;0.93;0.93;;;;;;;5.46;80.24;96618.00;5037627;28;20140;-74
2024/01/01 10:34:45;;;;;;;0.90;0.90;;;;;;;5.44;80.89;96612.88;5034623;28;20044;-74
2024/01/01 10:37:13;;;;;;;1.23;1.23;;;;;;;5.33;81.06;96618.66;5036245;28;20061;-74
2024/01/01 10:39:42;;;;;;;0.73;0.73;;;;;;;5.34;81.38;96627.41;5027430;28;20037;-74
2024/01/01 10:42:11;;;;;;;1.23;1.23;;;;;;;5.32;82.06;96622.31;5023729;28;20045;-74
2024/01/01 10:44:39;;;;;;;1.25;1.25;;;;;;;5.28;82.92;96625.53;5027087;28;20067;-74
2024/01/01 10:47:09;;;;;;;0.95;0.95;;;;;;;5.25;83.38;96626.72;5031133;28;20041;-73
2024/01/01 10:49:38;;;;;;;0.88;0.88;;;;;;;5.23;84.26;96625.25;5032297;28;20060;-73
2024/01/01 10:52:24;;;;;;;0.90;0.90;;;;;;;5.19;84.79;96616.88;5036655;28;20134;-74
2024/01/01 10:55:30;;;;;;;1.08;1.08;;;;;;;5.07;84.24;96613.91;5036072;28;20041;-74
2024/01/01 10:58:19;;;;;;;0.77;0.77;;;;;;;4.94;83.98;96618.19;5014688;28;20523;-74
2024/01/01 11:00:51;;;;;;;0.90;0.90;;;;;;;4.97;84.41;96615.19;5031908;28;20053;-74
2024/01/01 11:03:19;;;;;;;0.88;0.88;;;;;;;4.95;82.82;96619.81;5033442;28;20469;-74
2024/01/01 11:05:50;;;;;;;0.68;0.68;;;;;;;5.01;84.38;96622.53;5030328;28;20565;-74
2024/01/01 11:08:25;;;;;;;0.88;0.88;;;;;;;4.87;82.91;96607.53;5024712;28;20072;-73
2024/01/01 11:10:53;;;;;;;1.00;1.00;;;;;;;4.79;84.96;96594.38;5029277;28;20049;-73
2024/01/01 11:13:55;;;;;;;0.95;0.95;;;;;;;4.85;84.71;96603.44;5033659;28;20052;-75
2024/01/01 11:16:23;;;;;;;;;;;;;;;4.87;83.34;96602.25;5046372;28;20126;-75
2024/01/01 11:18:51;;;;;;;0.80;0.80;;;;;;;4.95;82.93;96614.53;5054988;28;19983;-75
2024/01/01 11:21:30;;;;;;;1.15;1.15;;;;;;;4.96;83.30;96616.19;5035759;28;20038;-76
2024/01/01 11:24:01;;;;;;;;;;;;;;;4.98;84.27;96614.19;5034772;28;20038;-76
2024/01/01 11:26:34;;;;;;;0.93;0.93;;;;;;;5.01;84.53;96613.78;5034162;28;20024;-75
2024/01/01 11:29:06;;;;;;;1.13;1.13;;;;;;;5.11;83.56;96606.38;5034050;28;20041;-75
2024/01/01 11:31:35;;;;;;;0.93;0.93;;;;;;;5.24;82.52;96603.91;5034202;28;20045;-75
2024/01/01 11:34:05;;;;;;;0.85;0.85;;;;;;;5.30;81.91;96600.50;5017735;28;20034;-75
2024/01/01 11:36:47;;;;;;;1.00;1.00;;;;;;;5.41;81.88;96597.38;5034327;28;20512;-75
2024/01/01 11:39:21;;;;;;;0.45;0.45;;;;;;;5.48;82.53;96605.41;5033836;28;20386;-75
2024/01/01 11:41:49;;;;;;;0.98;0.98;;;;;;;5.56;81.71;96604.47;5033887;28;20053;-75
2024/01/01 11:44:18;;;;;;;1.02;1.02;;;;;;;5.60;80.54;96603.91;5033971;28;20064;-75
2024/01/01 11:46:48;;;;;;;1.20;1.20;;;;;;;5.67;80.56;96609.25;5033371;28;20044;-75
2024/01/01 11:49:17;;;;;;;0.93;0.93;;;;;;;5.75;80.36;96614.44;5033718;28;20069;-75